sensor_id;sensor_type;location;lat;lon;timestamp;temperature;humidity
16491;DHT22;8356;51.214;3.270;2024-02-16T00:01:01;384.00;2329.60
16491;DHT22;8356;51.214;3.270;2024-02-16T00:03:27;359.10;2329.60
16491;DHT22;8356;51.214;3.270;2024-02-16T00:05:53;359.00;2329.60
16491;DHT22;8356;51.214;3.270;2024-02-16T00:08:19;359.30;2329.60
16491;DHT22;8356;51.214;3.270;2024-02-16T00:10:48;359.30;2329.60
16491;DHT22;8356;51.214;3.270;2024-02-16T00:13:15;384.00;2329.60
16491;DHT22;8356;51.214;3.270;2024-02-16T00:15:40;384.00;2329.60
16491;DHT22;8356;51.214;3.270;2024-02-16T00:18:06;384.00;2329.60
16491;DHT22;8356;51.214;3.270;2024-02-16T00:20:33;359.30;2329.60
16491;DHT22;8356;51.214;3.270;2024-02-16T00:22:59;359.30;2329.60
16491;DHT22;8356;51.214;3.270;2024-02-16T00:25:26;359.30;2329.60
16491;DHT22;8356;51.214;3.270;2024-02-16T00:27:51;359.30;2329.60
16491;DHT22;8356;51.214;3.270;2024-02-16T00:30:20;359.30;2329.60
16491;DHT22;8356;51.214;3.270;2024-02-16T00:32:47;359.30;2329.60
16491;DHT22;8356;51.214;3.270;2024-02-16T00:35:14;359.30;2329.60
16491;DHT22;8356;51.214;3.270;2024-02-16T00:37:42;359.30;2329.60
16491;DHT22;8356;51.214;3.270;2024-02-16T00:40:08;359.30;2329.60
16491;DHT22;8356;51.214;3.270;2024-02-16T00:42:34;359.30;2329.60
16491;DHT22;8356;51.214;3.270;2024-02-16T00:45:00;359.30;2329.60
16491;DHT22;8356;51.214;3.270;2024-02-16T00:47:29;359.30;2329.60
16491;DHT22;8356;51.214;3.270;2024-02-16T00:49:55;359.30;2329.60
16491;DHT22;8356;51.214;3.270;2024-02-16T00:52:21;359.30;2329.60
16491;DHT22;8356;51.214;3.270;2024-02-16T00:54:48;359.30;2329.60
16491;DHT22;8356;51.214;3.270;2024-02-16T00:57:13;359.30;2329.60
16491;DHT22;8356;51.214;3.270;2024-02-16T00:59:40;359.30;2329.60
16491;DHT22;8356;51.214;3.270;2024-02-16T01:02:06;359.30;2329.60
16491;DHT22;8356;51.214;3.270;2024-02-16T01:04:32;359.30;2329.60
16491;DHT22;8356;51.214;3.270;2024-02-16T01:06:58;359.30;2329.60
16491;DHT22;8356;51.214;3.270;2024-02-16T01:09:24;359.30;2329.60
16491;DHT22;8356;51.214;3.270;2024-02-16T01:11:50;359.30;2329.60
16491;DHT22;8356;51.214;3.270;2024-02-16T01:14:15;359.30;2329.60
16491;DHT22;8356;51.214;3.270;2024-02-16T01:16:41;359.30;2329.60
16491;DHT22;8356;51.214;3.270;2024-02-16T01:19:07;359.30;2329.60
16491;DHT22;8356;51.214;3.270;2024-02-16T01:21:33;359.30;2329.60
16491;DHT22;8356;51.214;3.270;2024-02-16T01:23:59;359.30;2329.60
16491;DHT22;8356;51.214;3.270;2024-02-16T01:26:27;359.30;2329.60
16491;DHT22;8356;51.214;3.270;2024-02-16T01:28:53;359.30;2329.60
16491;DHT22;8356;51.214;3.270;2024-02-16T01:31:18;359.30;2329.60
16491;DHT22;8356;51.214;3.270;2024-02-16T01:33:44;359.30;2329.60
16491;DHT22;8356;51.214;3.270;2024-02-16T01:36:09;359.30;2329.60
16491;DHT22;8356;51.214;3.270;2024-02-16T01:38:36;359.30;2329.60
16491;DHT22;8356;51.214;3.270;2024-02-16T01:41:02;359.30;2329.60
16491;DHT22;8356;51.214;3.270;2024-02-16T01:43:27;359.30;2329.60
16491;DHT22;8356;51.214;3.270;2024-02-16T01:45:53;359.30;2329.60
16491;DHT22;8356;51.214;3.270;2024-02-16T01:48:19;359.30;2329.60
16491;DHT22;8356;51.214;3.270;2024-02-16T01:50:45;359.30;2329.60
16491;DHT22;8356;51.214;3.270;2024-02-16T01:53:12;359.30;2329.60
16491;DHT22;8356;51.214;3.270;2024-02-16T01:55:40;359.20;2329.60
16491;DHT22;8356;51.214;3.270;2024-02-16T01:58:05;359.20;2329.60
16491;DHT22;8356;51.214;3.270;2024-02-16T02:00:32;359.20;2329.60
16491;DHT22;8356;51.214;3.270;2024-02-16T02:02:58;359.10;2329.60
16491;DHT22;8356;51.214;3.270;2024-02-16T02:05:23;359.10;2329.60
16491;DHT22;8356;51.214;3.270;2024-02-16T02:07:49;359.10;2329.60
16491;DHT22;8356;51.214;3.270;2024-02-16T02:10:15;359.10;2329.60
16491;DHT22;8356;51.214;3.270;2024-02-16T02:12:41;359.10;2329.60
16491;DHT22;8356;51.214;3.270;2024-02-16T02:15:08;359.10;2329.60
16491;DHT22;8356;51.214;3.270;2024-02-16T02:17:34;359.10;2329.60
16491;DHT22;8356;51.214;3.270;2024-02-16T02:20:00;359.10;2329.60
16491;DHT22;8356;51.214;3.270;2024-02-16T02:22:26;359.10;2329.60
16491;DHT22;8356;51.214;3.270;2024-02-16T02:24:53;359.10;2329.60
16491;DHT22;8356;51.214;3.270;2024-02-16T02:27:21;359.10;2329.60
16491;DHT22;8356;51.214;3.270;2024-02-16T02:29:47;359.00;2329.60
16491;DHT22;8356;51.214;3.270;2024-02-16T02:32:12;359.10;2329.60
16491;DHT22;8356;51.214;3.270;2024-02-16T02:34:38;359.10;2329.60
16491;DHT22;8356;51.214;3.270;2024-02-16T02:37:04;359.10;2329.60
16491;DHT22;8356;51.214;3.270;2024-02-16T02:39:30;359.10;2329.60
16491;DHT22;8356;51.214;3.270;2024-02-16T02:41:56;359.10;2329.60
16491;DHT22;8356;51.214;3.270;2024-02-16T02:44:23;359.10;2329.60
16491;DHT22;8356;51.214;3.270;2024-02-16T02:46:49;358.50;2329.60
16491;DHT22;8356;51.214;3.270;2024-02-16T02:49:14;359.10;2329.60
16491;DHT22;8356;51.214;3.270;2024-02-16T02:51:40;359.10;2329.60
16491;DHT22;8356;51.214;3.270;2024-02-16T02:54:06;359.10;2329.60
16491;DHT22;8356;51.214;3.270;2024-02-16T02:56:31;359.10;2329.60
16491;DHT22;8356;51.214;3.270;2024-02-16T02:58:57;359.10;2329.60
16491;DHT22;8356;51.214;3.270;2024-02-16T03:01:23;359.00;2329.60
16491;DHT22;8356;51.214;3.270;2024-02-16T03:03:48;359.00;2329.60
16491;DHT22;8356;51.214;3.270;2024-02-16T03:06:20;359.00;2329.60
16491;DHT22;8356;51.214;3.270;2024-02-16T03:08:46;359.00;2329.60
16491;DHT22;8356;51.214;3.270;2024-02-16T03:11:12;359.00;2329.60
16491;DHT22;8356;51.214;3.270;2024-02-16T03:13:38;359.00;2329.60
16491;DHT22;8356;51.214;3.270;2024-02-16T03:16:04;359.00;2329.60
16491;DHT22;8356;51.214;3.270;2024-02-16T03:18:33;359.00;2329.60
16491;DHT22;8356;51.214;3.270;2024-02-16T03:21:02;359.00;2329.60
16491;DHT22;8356;51.214;3.270;2024-02-16T03:23:28;359.00;2329.60
16491;DHT22;8356;51.214;3.270;2024-02-16T03:25:53;359.00;2329.60
16491;DHT22;8356;51.214;3.270;2024-02-16T03:28:20;359.00;2329.60
16491;DHT22;8356;51.214;3.270;2024-02-16T03:30:46;359.00;2329.60
16491;DHT22;8356;51.214;3.270;2024-02-16T03:33:12;359.10;2329.60
16491;DHT22;8356;51.214;3.270;2024-02-16T03:35:38;359.00;2329.60
16491;DHT22;8356;51.214;3.270;2024-02-16T03:38:04;359.00;2329.60
16491;DHT22;8356;51.214;3.270;2024-02-16T03:40:30;359.00;2329.60
16491;DHT22;8356;51.214;3.270;2024-02-16T03:42:56;359.00;2329.60
16491;DHT22;8356;51.214;3.270;2024-02-16T03:45:23;359.00;2329.60
16491;DHT22;8356;51.214;3.270;2024-02-16T03:47:49;359.00;2329.60
16491;DHT22;8356;51.214;3.270;2024-02-16T03:50:18;359.00;2329.60
16491;DHT22;8356;51.214;3.270;2024-02-16T03:52:44;359.00;2329.60
16491;DHT22;8356;51.214;3.270;2024-02-16T03:55:09;359.10;2329.60
16491;DHT22;8356;51.214;3.270;2024-02-16T03:57:35;359.00;2329.60
16491;DHT22;8356;51.214;3.270;2024-02-16T04:00:02;359.00;2329.60
16491;DHT22;8356;51.214;3.270;2024-02-16T04:02:28;359.00;2329.60
16491;DHT22;8356;51.214;3.270;2024-02-16T04:04:53;359.00;2329.60
16491;DHT22;8356;51.214;3.270;2024-02-16T04:07:19;359.10;2329.60
16491;DHT22;8356;51.214;3.270;2024-02-16T04:09:45;359.10;2329.60
16491;DHT22;8356;51.214;3.270;2024-02-16T04:12:10;359.10;2329.60
16491;DHT22;8356;51.214;3.270;2024-02-16T04:14:36;359.10;2329.60
16491;DHT22;8356;51.214;3.270;2024-02-16T04:17:02;359.10;2329.60
16491;DHT22;8356;51.214;3.270;2024-02-16T04:19:28;359.10;2329.60
16491;DHT22;8356;51.214;3.270;2024-02-16T04:21:53;359.10;2329.60
16491;DHT22;8356;51.214;3.270;2024-02-16T04:24:19;359.20;2329.60
16491;DHT22;8356;51.214;3.270;2024-02-16T04:26:45;359.20;2329.60
16491;DHT22;8356;51.214;3.270;2024-02-16T04:29:11;359.20;2329.60
16491;DHT22;8356;51.214;3.270;2024-02-16T04:31:40;359.20;2329.60
16491;DHT22;8356;51.214;3.270;2024-02-16T04:34:08;359.20;2329.60
16491;DHT22;8356;51.214;3.270;2024-02-16T04:36:33;359.20;2329.60
16491;DHT22;8356;51.214;3.270;2024-02-16T04:38:59;359.20;2329.60
16491;DHT22;8356;51.214;3.270;2024-02-16T04:41:24;359.20;2329.60
16491;DHT22;8356;51.214;3.270;2024-02-16T04:43:50;359.30;2329.60
16491;DHT22;8356;51.214;3.270;2024-02-16T04:46:16;359.20;2329.60
16491;DHT22;8356;51.214;3.270;2024-02-16T04:48:42;384.60;2329.60
16491;DHT22;8356;51.214;3.270;2024-02-16T04:51:08;359.20;2329.60
16491;DHT22;8356;51.214;3.270;2024-02-16T04:53:34;359.20;2329.60
16491;DHT22;8356;51.214;3.270;2024-02-16T04:55:59;359.20;2329.60
16491;DHT22;8356;51.214;3.270;2024-02-16T04:58:27;359.20;2329.60
16491;DHT22;8356;51.214;3.270;2024-02-16T05:00:53;359.20;2329.60
16491;DHT22;8356;51.214;3.270;2024-02-16T05:03:18;359.20;2329.60
16491;DHT22;8356;51.214;3.270;2024-02-16T05:05:44;359.20;2329.60
16491;DHT22;8356;51.214;3.270;2024-02-16T05:08:11;359.20;2329.60
16491;DHT22;8356;51.214;3.270;2024-02-16T05:10:36;359.20;2329.60
16491;DHT22;8356;51.214;3.270;2024-02-16T05:13:03;359.20;2329.60
16491;DHT22;8356;51.214;3.270;2024-02-16T05:15:29;359.20;2329.60
16491;DHT22;8356;51.214;3.270;2024-02-16T05:17:54;359.20;2329.60
16491;DHT22;8356;51.214;3.270;2024-02-16T05:20:20;359.20;2329.60
16491;DHT22;8356;51.214;3.270;2024-02-16T05:22:46;359.20;2329.60
16491;DHT22;8356;51.214;3.270;2024-02-16T05:25:12;359.20;2329.60
16491;DHT22;8356;51.214;3.270;2024-02-16T05:27:39;359.20;2329.60
16491;DHT22;8356;51.214;3.270;2024-02-16T05:30:05;359.20;2329.60
16491;DHT22;8356;51.214;3.270;2024-02-16T05:32:37;359.20;2329.60
16491;DHT22;8356;51.214;3.270;2024-02-16T05:35:03;359.20;2329.60
16491;DHT22;8356;51.214;3.270;2024-02-16T05:37:30;359.20;2329.60
16491;DHT22;8356;51.214;3.270;2024-02-16T05:39:58;359.20;2329.60
16491;DHT22;8356;51.214;3.270;2024-02-16T05:42:34;359.20;2329.60
16491;DHT22;8356;51.214;3.270;2024-02-16T05:44:59;359.20;2329.60
16491;DHT22;8356;51.214;3.270;2024-02-16T05:47:25;359.20;2329.60
16491;DHT22;8356;51.214;3.270;2024-02-16T05:49:52;359.20;2329.60
16491;DHT22;8356;51.214;3.270;2024-02-16T05:52:18;359.20;2329.60
16491;DHT22;8356;51.214;3.270;2024-02-16T05:54:47;359.20;2329.60
16491;DHT22;8356;51.214;3.270;2024-02-16T05:57:14;359.20;2329.60
16491;DHT22;8356;51.214;3.270;2024-02-16T05:59:41;359.20;2329.60
16491;DHT22;8356;51.214;3.270;2024-02-16T06:02:07;359.20;2329.60
16491;DHT22;8356;51.214;3.270;2024-02-16T06:04:33;359.20;2329.60
16491;DHT22;8356;51.214;3.270;2024-02-16T06:06:59;359.20;2329.60
16491;DHT22;8356;51.214;3.270;2024-02-16T06:09:25;359.20;2329.60
16491;DHT22;8356;51.214;3.270;2024-02-16T06:11:51;359.10;2329.60
16491;DHT22;8356;51.214;3.270;2024-02-16T06:14:17;359.20;2329.60
16491;DHT22;8356;51.214;3.270;2024-02-16T06:16:43;359.30;2329.60
16491;DHT22;8356;51.214;3.270;2024-02-16T06:19:09;359.30;2329.60
16491;DHT22;8356;51.214;3.270;2024-02-16T06:21:35;359.30;2329.60
16491;DHT22;8356;51.214;3.270;2024-02-16T06:24:01;359.30;2329.60
16491;DHT22;8356;51.214;3.270;2024-02-16T06:26:26;359.30;2329.60
16491;DHT22;8356;51.214;3.270;2024-02-16T06:28:52;359.30;2329.60
16491;DHT22;8356;51.214;3.270;2024-02-16T06:31:18;359.30;2329.60
16491;DHT22;8356;51.214;3.270;2024-02-16T06:33:43;359.30;2329.60
16491;DHT22;8356;51.214;3.270;2024-02-16T06:36:09;359.30;2329.60
16491;DHT22;8356;51.214;3.270;2024-02-16T06:38:38;359.30;2329.60
16491;DHT22;8356;51.214;3.270;2024-02-16T06:41:04;359.30;2329.60
16491;DHT22;8356;51.214;3.270;2024-02-16T06:43:30;359.30;2329.60
16491;DHT22;8356;51.214;3.270;2024-02-16T06:45:55;359.30;2329.60
16491;DHT22;8356;51.214;3.270;2024-02-16T06:48:22;359.30;2329.60
16491;DHT22;8356;51.214;3.270;2024-02-16T06:50:48;359.30;2329.60
16491;DHT22;8356;51.214;3.270;2024-02-16T06:53:14;359.30;2329.60
16491;DHT22;8356;51.214;3.270;2024-02-16T06:55:40;359.30;2329.60
16491;DHT22;8356;51.214;3.270;2024-02-16T06:58:05;359.30;2329.60
16491;DHT22;8356;51.214;3.270;2024-02-16T07:00:31;359.20;2329.60
16491;DHT22;8356;51.214;3.270;2024-02-16T07:02:57;359.20;2329.60
16491;DHT22;8356;51.214;3.270;2024-02-16T07:05:22;359.20;2329.60
16491;DHT22;8356;51.214;3.270;2024-02-16T07:07:48;359.10;2329.60
16491;DHT22;8356;51.214;3.270;2024-02-16T07:10:15;359.10;2329.60
16491;DHT22;8356;51.214;3.270;2024-02-16T07:12:41;359.10;2329.60
16491;DHT22;8356;51.214;3.270;2024-02-16T07:15:07;359.10;2329.60
16491;DHT22;8356;51.214;3.270;2024-02-16T07:17:34;359.10;2329.60
16491;DHT22;8356;51.214;3.270;2024-02-16T07:20:00;359.10;2329.60
16491;DHT22;8356;51.214;3.270;2024-02-16T07:22:29;359.10;2329.60
16491;DHT22;8356;51.214;3.270;2024-02-16T07:24:55;359.10;2329.60
16491;DHT22;8356;51.214;3.270;2024-02-16T07:27:20;359.10;2329.60
16491;DHT22;8356;51.214;3.270;2024-02-16T07:29:46;359.10;2329.60
16491;DHT22;8356;51.214;3.270;2024-02-16T07:32:12;359.10;2329.60
16491;DHT22;8356;51.214;3.270;2024-02-16T07:34:38;359.10;2329.60
16491;DHT22;8356;51.214;3.270;2024-02-16T07:37:04;359.10;2329.60
16491;DHT22;8356;51.214;3.270;2024-02-16T07:39:29;359.10;2329.60
16491;DHT22;8356;51.214;3.270;2024-02-16T07:41:55;359.10;2329.60
16491;DHT22;8356;51.214;3.270;2024-02-16T07:44:21;359.10;2329.60
16491;DHT22;8356;51.214;3.270;2024-02-16T07:46:47;359.10;2329.60
16491;DHT22;8356;51.214;3.270;2024-02-16T07:49:15;359.10;2329.60
16491;DHT22;8356;51.214;3.270;2024-02-16T07:51:40;359.10;2329.60
16491;DHT22;8356;51.214;3.270;2024-02-16T07:54:07;359.10;2329.60
16491;DHT22;8356;51.214;3.270;2024-02-16T07:56:33;359.10;2329.60
16491;DHT22;8356;51.214;3.270;2024-02-16T07:58:59;359.10;2329.60
16491;DHT22;8356;51.214;3.270;2024-02-16T08:01:25;359.20;2329.60
16491;DHT22;8356;51.214;3.270;2024-02-16T08:03:51;359.20;2329.60
16491;DHT22;8356;51.214;3.270;2024-02-16T08:06:18;359.10;2329.60
16491;DHT22;8356;51.214;3.270;2024-02-16T08:08:47;359.20;2329.60
16491;DHT22;8356;51.214;3.270;2024-02-16T08:11:12;359.20;2329.60
16491;DHT22;8356;51.214;3.270;2024-02-16T08:13:38;359.10;2329.60
16491;DHT22;8356;51.214;3.270;2024-02-16T08:16:04;359.10;2329.60
16491;DHT22;8356;51.214;3.270;2024-02-16T08:18:33;359.10;2329.60
16491;DHT22;8356;51.214;3.270;2024-02-16T08:20:59;359.00;2329.60
16491;DHT22;8356;51.214;3.270;2024-02-16T08:23:24;359.00;2329.60
16491;DHT22;8356;51.214;3.270;2024-02-16T08:25:50;359.00;2329.60
16491;DHT22;8356;51.214;3.270;2024-02-16T08:28:16;359.00;2329.60
16491;DHT22;8356;51.214;3.270;2024-02-16T08:30:41;359.00;2329.60
16491;DHT22;8356;51.214;3.270;2024-02-16T08:33:09;359.00;2329.60
16491;DHT22;8356;51.214;3.270;2024-02-16T08:35:35;384.40;2329.60
16491;DHT22;8356;51.214;3.270;2024-02-16T08:38:01;359.00;2329.60
16491;DHT22;8356;51.214;3.270;2024-02-16T08:40:27;359.00;2329.60
16491;DHT22;8356;51.214;3.270;2024-02-16T08:42:52;359.00;2329.60
16491;DHT22;8356;51.214;3.270;2024-02-16T08:45:18;359.00;2329.60
16491;DHT22;8356;51.214;3.270;2024-02-16T08:47:44;359.00;2329.60
16491;DHT22;8356;51.214;3.270;2024-02-16T08:50:10;359.00;2329.60
16491;DHT22;8356;51.214;3.270;2024-02-16T08:52:37;359.00;2329.60
16491;DHT22;8356;51.214;3.270;2024-02-16T08:55:03;358.90;2329.60
16491;DHT22;8356;51.214;3.270;2024-02-16T08:57:28;358.90;2329.60
16491;DHT22;8356;51.214;3.270;2024-02-16T08:59:54;358.90;2329.60
16491;DHT22;8356;51.214;3.270;2024-02-16T09:02:21;358.90;2329.60
16491;DHT22;8356;51.214;3.270;2024-02-16T09:04:47;358.90;2329.60
16491;DHT22;8356;51.214;3.270;2024-02-16T09:07:13;358.90;2329.60
16491;DHT22;8356;51.214;3.270;2024-02-16T09:09:39;358.90;2329.60
16491;DHT22;8356;51.214;3.270;2024-02-16T09:12:04;358.90;2329.60
16491;DHT22;8356;51.214;3.270;2024-02-16T09:14:30;358.90;2329.60
16491;DHT22;8356;51.214;3.270;2024-02-16T09:16:57;358.90;2329.60
16491;DHT22;8356;51.214;3.270;2024-02-16T09:19:24;358.90;2329.60
16491;DHT22;8356;51.214;3.270;2024-02-16T09:21:49;358.90;2329.60
16491;DHT22;8356;51.214;3.270;2024-02-16T09:24:17;358.80;2329.60
16491;DHT22;8356;51.214;3.270;2024-02-16T09:26:46;358.80;2329.60
16491;DHT22;8356;51.214;3.270;2024-02-16T09:29:13;358.80;2329.60
16491;DHT22;8356;51.214;3.270;2024-02-16T09:31:42;358.80;2329.60
16491;DHT22;8356;51.214;3.270;2024-02-16T09:34:08;358.80;2329.60
16491;DHT22;8356;51.214;3.270;2024-02-16T09:36:34;358.80;2329.60
16491;DHT22;8356;51.214;3.270;2024-02-16T09:39:01;358.80;2329.60
16491;DHT22;8356;51.214;3.270;2024-02-16T09:41:27;358.80;2329.60
16491;DHT22;8356;51.214;3.270;2024-02-16T09:43:54;358.80;2329.60
16491;DHT22;8356;51.214;3.270;2024-02-16T09:46:21;358.80;2329.60
16491;DHT22;8356;51.214;3.270;2024-02-16T09:48:49;358.80;2329.60
16491;DHT22;8356;51.214;3.270;2024-02-16T09:51:17;358.90;2329.60
16491;DHT22;8356;51.214;3.270;2024-02-16T09:53:45;358.80;2329.60
16491;DHT22;8356;51.214;3.270;2024-02-16T09:56:17;358.90;2329.60
16491;DHT22;8356;51.214;3.270;2024-02-16T09:58:43;358.90;2329.60
16491;DHT22;8356;51.214;3.270;2024-02-16T10:01:19;358.80;2329.60
16491;DHT22;8356;51.214;3.270;2024-02-16T10:03:46;358.80;2329.60
16491;DHT22;8356;51.214;3.270;2024-02-16T10:06:12;358.80;2329.60
16491;DHT22;8356;51.214;3.270;2024-02-16T10:08:52;358.80;2329.60
16491;DHT22;8356;51.214;3.270;2024-02-16T10:11:23;358.70;2329.60
16491;DHT22;8356;51.214;3.270;2024-02-16T10:13:57;358.70;2329.60
16491;DHT22;8356;51.214;3.270;2024-02-16T10:16:23;358.70;2329.60
16491;DHT22;8356;51.214;3.270;2024-02-16T10:18:49;358.70;2329.60
16491;DHT22;8356;51.214;3.270;2024-02-16T10:21:27;358.60;2329.60
16491;DHT22;8356;51.214;3.270;2024-02-16T10:24:12;358.60;2329.60
16491;DHT22;8356;51.214;3.270;2024-02-16T10:26:40;358.50;2329.60
16491;DHT22;8356;51.214;3.270;2024-02-16T10:29:08;358.40;2329.60
16491;DHT22;8356;51.214;3.270;2024-02-16T10:31:34;358.50;2329.60
16491;DHT22;8356;51.214;3.270;2024-02-16T10:34:00;358.50;2329.60
16491;DHT22;8356;51.214;3.270;2024-02-16T10:36:36;333.70;2329.60
16491;DHT22;8356;51.214;3.270;2024-02-16T10:39:03;333.70;2329.60
16491;DHT22;8356;51.214;3.270;2024-02-16T10:41:44;333.70;2329.60
16491;DHT22;8356;51.214;3.270;2024-02-16T10:44:10;333.70;2329.60
16491;DHT22;8356;51.214;3.270;2024-02-16T10:46:36;333.70;2329.60
16491;DHT22;8356;51.214;3.270;2024-02-16T10:49:02;333.70;2329.60
16491;DHT22;8356;51.214;3.270;2024-02-16T10:51:39;333.70;2329.60
16491;DHT22;8356;51.214;3.270;2024-02-16T10:54:06;333.70;2329.60
16491;DHT22;8356;51.214;3.270;2024-02-16T10:56:36;358.50;2329.60
16491;DHT22;8356;51.214;3.270;2024-02-16T10:59:08;358.40;2329.60
16491;DHT22;8356;51.214;3.270;2024-02-16T11:01:41;358.40;2329.60
16491;DHT22;8356;51.214;3.270;2024-02-16T11:04:09;358.40;2329.60
16491;DHT22;8356;51.214;3.270;2024-02-16T11:06:55;358.60;2329.60
16491;DHT22;8356;51.214;3.270;2024-02-16T11:09:29;358.50;2329.60
16491;DHT22;8356;51.214;3.270;2024-02-16T11:11:58;358.60;2329.60
16491;DHT22;8356;51.214;3.270;2024-02-16T11:14:37;358.70;2329.60
16491;DHT22;8356;51.214;3.270;2024-02-16T11:17:10;358.70;2329.60
16491;DHT22;8356;51.214;3.270;2024-02-16T11:19:37;358.80;2329.60
16491;DHT22;8356;51.214;3.270;2024-02-16T11:22:04;358.80;2329.60
16491;DHT22;8356;51.214;3.270;2024-02-16T11:24:43;358.80;2329.60
16491;DHT22;8356;51.214;3.270;2024-02-16T11:27:12;359.00;2329.60
16491;DHT22;8356;51.214;3.270;2024-02-16T11:29:39;358.70;2329.60
16491;DHT22;8356;51.214;3.270;2024-02-16T11:32:07;359.10;2329.60
16491;DHT22;8356;51.214;3.270;2024-02-16T11:34:34;359.20;2329.60
16491;DHT22;8356;51.214;3.270;2024-02-16T11:37:01;359.30;2329.60
16491;DHT22;8356;51.214;3.270;2024-02-16T11:39:27;359.30;2329.60
16491;DHT22;8356;51.214;3.270;2024-02-16T11:42:09;359.30;2329.60
16491;DHT22;8356;51.214;3.270;2024-02-16T11:44:39;359.30;2329.60
16491;DHT22;8356;51.214;3.270;2024-02-16T11:47:08;359.30;2329.60
16491;DHT22;8356;51.214;3.270;2024-02-16T11:49:38;384.00;2329.60
16491;DHT22;8356;51.214;3.270;2024-02-16T11:52:04;384.00;2329.60
16491;DHT22;8356;51.214;3.270;2024-02-16T11:54:30;384.10;2329.60
16491;DHT22;8356;51.214;3.270;2024-02-16T11:56:57;384.20;2329.60
16491;DHT22;8356;51.214;3.270;2024-02-16T11:59:23;384.20;2329.60
16491;DHT22;8356;51.214;3.270;2024-02-16T12:01:58;384.20;2329.60
16491;DHT22;8356;51.214;3.270;2024-02-16T12:04:26;359.30;2329.60
16491;DHT22;8356;51.214;3.270;2024-02-16T12:09:21;359.30;2329.60
16491;DHT22;8356;51.214;3.270;2024-02-16T12:11:48;359.30;2329.60
16491;DHT22;8356;51.214;3.270;2024-02-16T12:14:16;384.00;2329.60
16491;DHT22;8356;51.214;3.270;2024-02-16T12:16:46;384.10;2329.60
16491;DHT22;8356;51.214;3.270;2024-02-16T12:19:12;384.20;2329.60
16491;DHT22;8356;51.214;3.270;2024-02-16T12:21:38;384.20;2329.60
16491;DHT22;8356;51.214;3.270;2024-02-16T12:24:04;384.10;2329.60
16491;DHT22;8356;51.214;3.270;2024-02-16T12:26:30;384.20;2329.60
16491;DHT22;8356;51.214;3.270;2024-02-16T12:28:55;384.30;2329.60
16491;DHT22;8356;51.214;3.270;2024-02-16T12:31:21;384.30;2329.60
16491;DHT22;8356;51.214;3.270;2024-02-16T12:33:47;384.20;2329.60
16491;DHT22;8356;51.214;3.270;2024-02-16T12:36:13;384.00;2329.60
16491;DHT22;8356;51.214;3.270;2024-02-16T12:38:40;384.10;2329.60
16491;DHT22;8356;51.214;3.270;2024-02-16T12:41:06;384.00;2329.60
16491;DHT22;8356;51.214;3.270;2024-02-16T12:43:32;384.00;2329.60
16491;DHT22;8356;51.214;3.270;2024-02-16T12:45:57;384.10;2329.60
16491;DHT22;8356;51.214;3.270;2024-02-16T12:48:27;384.00;2329.60
16491;DHT22;8356;51.214;3.270;2024-02-16T12:50:53;384.00;2329.60
16491;DHT22;8356;51.214;3.270;2024-02-16T12:53:19;359.30;2329.60
16491;DHT22;8356;51.214;3.270;2024-02-16T12:55:46;359.30;2329.60
16491;DHT22;8356;51.214;3.270;2024-02-16T12:58:13;359.30;2329.60
16491;DHT22;8356;51.214;3.270;2024-02-16T13:00:38;359.30;2329.60
16491;DHT22;8356;51.214;3.270;2024-02-16T13:03:04;359.30;2329.60
16491;DHT22;8356;51.214;3.270;2024-02-16T13:05:30;359.30;2329.60
16491;DHT22;8356;51.214;3.270;2024-02-16T13:07:58;359.30;2329.60
16491;DHT22;8356;51.214;3.270;2024-02-16T13:10:24;359.30;2329.60
16491;DHT22;8356;51.214;3.270;2024-02-16T13:12:50;384.10;2329.60
16491;DHT22;8356;51.214;3.270;2024-02-16T13:15:15;384.20;2329.60
16491;DHT22;8356;51.214;3.270;2024-02-16T13:17:41;384.00;2329.60
16491;DHT22;8356;51.214;3.270;2024-02-16T13:20:07;384.10;2329.60
16491;DHT22;8356;51.214;3.270;2024-02-16T13:22:35;359.30;2329.60
16491;DHT22;8356;51.214;3.270;2024-02-16T13:25:04;359.20;2329.60
16491;DHT22;8356;51.214;3.270;2024-02-16T13:27:31;359.10;2329.60
16491;DHT22;8356;51.214;3.270;2024-02-16T13:29:57;359.10;2329.60
16491;DHT22;8356;51.214;3.270;2024-02-16T13:32:23;359.20;2329.60
16491;DHT22;8356;51.214;3.270;2024-02-16T13:34:49;359.30;2329.60
16491;DHT22;8356;51.214;3.270;2024-02-16T13:37:14;359.20;2329.60
16491;DHT22;8356;51.214;3.270;2024-02-16T13:39:40;359.30;2329.60
16491;DHT22;8356;51.214;3.270;2024-02-16T13:42:06;359.30;2329.60
16491;DHT22;8356;51.214;3.270;2024-02-16T13:44:32;359.20;2329.60
16491;DHT22;8356;51.214;3.270;2024-02-16T13:46:57;359.30;2329.60
16491;DHT22;8356;51.214;3.270;2024-02-16T13:49:23;359.30;2329.60
16491;DHT22;8356;51.214;3.270;2024-02-16T13:51:48;359.30;2329.60
16491;DHT22;8356;51.214;3.270;2024-02-16T13:54:14;384.20;2329.60
16491;DHT22;8356;51.214;3.270;2024-02-16T13:56:40;384.20;2329.60
16491;DHT22;8356;51.214;3.270;2024-02-16T13:59:06;384.20;2329.60
16491;DHT22;8356;51.214;3.270;2024-02-16T14:01:35;384.10;2329.60
16491;DHT22;8356;51.214;3.270;2024-02-16T14:04:02;384.20;2329.60
16491;DHT22;8356;51.214;3.270;2024-02-16T14:06:28;384.30;2329.60
16491;DHT22;8356;51.214;3.270;2024-02-16T14:08:54;384.30;2329.60
16491;DHT22;8356;51.214;3.270;2024-02-16T14:11:21;384.20;2329.60
16491;DHT22;8356;51.214;3.270;2024-02-16T14:13:48;384.10;2329.60
16491;DHT22;8356;51.214;3.270;2024-02-16T14:16:13;384.10;2329.60
16491;DHT22;8356;51.214;3.270;2024-02-16T14:18:39;384.10;2329.60
16491;DHT22;8356;51.214;3.270;2024-02-16T14:21:04;384.10;2329.60
16491;DHT22;8356;51.214;3.270;2024-02-16T14:23:31;384.20;2329.60
16491;DHT22;8356;51.214;3.270;2024-02-16T14:25:58;384.20;2329.60
16491;DHT22;8356;51.214;3.270;2024-02-16T14:28:23;384.20;2329.60
16491;DHT22;8356;51.214;3.270;2024-02-16T14:30:49;384.20;2329.60
16491;DHT22;8356;51.214;3.270;2024-02-16T14:33:16;384.20;2329.60
16491;DHT22;8356;51.214;3.270;2024-02-16T14:35:43;384.30;2329.60
16491;DHT22;8356;51.214;3.270;2024-02-16T14:38:09;384.30;2329.60
16491;DHT22;8356;51.214;3.270;2024-02-16T14:40:36;384.30;2329.60
16491;DHT22;8356;51.214;3.270;2024-02-16T14:43:02;384.40;2329.60
16491;DHT22;8356;51.214;3.270;2024-02-16T14:45:27;384.50;2329.60
16491;DHT22;8356;51.214;3.270;2024-02-16T14:47:53;384.30;2329.60
16491;DHT22;8356;51.214;3.270;2024-02-16T14:50:19;384.30;2329.60
16491;DHT22;8356;51.214;3.270;2024-02-16T14:52:44;384.20;2329.60
16491;DHT22;8356;51.214;3.270;2024-02-16T14:55:11;409.80;2355.20
16491;DHT22;8356;51.214;3.270;2024-02-16T14:57:39;384.10;2329.60
16491;DHT22;8356;51.214;3.270;2024-02-16T15:00:09;384.20;2329.60
16491;DHT22;8356;51.214;3.270;2024-02-16T15:02:36;384.20;2329.60